createdAt,value
2022-07-30T00:01:17.444Z,40.66
2022-07-30T00:03:44.389Z,41.18
2022-07-30T00:06:11.225Z,40.73
2022-07-30T00:08:37.955Z,41.05
2022-07-30T00:11:04.588Z,41.03
2022-07-30T00:13:31.328Z,40.83
2022-07-30T00:15:58.206Z,41.14
2022-07-30T00:18:24.928Z,40.96
2022-07-30T00:20:51.860Z,41.37
2022-07-30T00:23:18.655Z,41.20
2022-07-30T00:25:45.359Z,40.83
2022-07-30T00:28:12.186Z,40.89
2022-07-30T00:30:40.664Z,41.06
2022-07-30T00:33:08.307Z,41.49
2022-07-30T00:35:35.486Z,41.13
2022-07-30T00:38:02.215Z,41.82
2022-07-30T00:40:29.059Z,41.60
2022-07-30T00:42:56.021Z,41.28
2022-07-30T00:45:22.969Z,41.30
2022-07-30T00:47:50.077Z,41.31
2022-07-30T00:50:17.145Z,41.34
2022-07-30T00:52:44.529Z,41.63
2022-07-30T00:55:13.446Z,41.64
2022-07-30T00:57:40.816Z,41.95
2022-07-30T01:00:10.287Z,41.98
2022-07-30T01:02:37.385Z,42.30
2022-07-30T01:05:05.004Z,42.17
2022-07-30T01:07:31.802Z,41.97
2022-07-30T01:09:58.580Z,42.35
2022-07-30T01:12:26.807Z,42.52
2022-07-30T01:14:56.222Z,42.06
2022-07-30T01:17:22.969Z,42.11
2022-07-30T01:19:56.010Z,42.24
2022-07-30T01:22:26.582Z,42.30
2022-07-30T01:25:28.735Z,42.32
2022-07-30T01:27:59.795Z,42.54
2022-07-30T01:30:29.337Z,42.41
2022-07-30T01:32:57.485Z,42.71
2022-07-30T01:35:26.499Z,42.78
2022-07-30T01:37:56.002Z,42.69
2022-07-30T01:40:25.906Z,43.15
2022-07-30T01:42:58.291Z,42.74
2022-07-30T01:45:27.090Z,43.08
2022-07-30T01:47:54.647Z,43.24
2022-07-30T01:50:22.911Z,43.04
2022-07-30T01:52:51.965Z,43.01
2022-07-30T01:55:31.074Z,43.15
2022-07-30T01:57:59.283Z,43.48
2022-07-30T02:00:30.777Z,43.15
2022-07-30T02:02:58.194Z,43.04
2022-07-30T02:05:28.265Z,43.35
2022-07-30T02:08:03.671Z,43.21
2022-07-30T02:10:46.788Z,43.27
2022-07-30T02:13:22.018Z,43.11
2022-07-30T02:15:57.293Z,43.60
2022-07-30T02:18:40.910Z,43.23
2022-07-30T02:21:11.566Z,43.48
2022-07-30T02:23:44.724Z,43.26
2022-07-30T02:26:19.414Z,43.37
2022-07-30T02:28:49.938Z,43.50
2022-07-30T02:31:19.896Z,43.70
2022-07-30T02:33:49.745Z,43.68
2022-07-30T02:36:18.998Z,43.81
2022-07-30T02:38:48.142Z,44.14
2022-07-30T02:41:15.670Z,44.00
2022-07-30T02:43:43.131Z,44.33
2022-07-30T02:46:11.945Z,44.69
2022-07-30T02:49:12.383Z,44.09
2022-07-30T02:51:41.449Z,44.28
2022-07-30T02:54:08.830Z,44.55
2022-07-30T02:56:39.650Z,44.33
2022-07-30T02:59:07.382Z,44.49
2022-07-30T03:01:35.644Z,45.24
2022-07-30T03:04:04.918Z,45.18
2022-07-30T03:06:32.892Z,45.10
2022-07-30T03:09:01.258Z,45.43
2022-07-30T03:11:29.271Z,45.38
2022-07-30T03:13:56.547Z,45.43
2022-07-30T03:16:25.992Z,45.01
2022-07-30T03:18:55.999Z,45.18
2022-07-30T03:21:26.571Z,45.02
2022-07-30T03:23:55.622Z,45.08
2022-07-30T03:26:23.007Z,45.25
2022-07-30T03:28:50.638Z,45.28
2022-07-30T03:31:17.867Z,45.73
2022-07-30T03:33:45.691Z,45.70
2022-07-30T03:36:15.730Z,45.42
2022-07-30T03:38:43.589Z,45.65
2022-07-30T03:41:11.088Z,45.80
2022-07-30T03:43:40.372Z,45.55
2022-07-30T03:46:08.165Z,45.86
2022-07-30T03:48:39.421Z,46.16
2022-07-30T03:51:07.699Z,45.97
2022-07-30T03:53:34.586Z,46.08
2022-07-30T03:56:37.593Z,46.20
2022-07-30T03:59:21.653Z,46.00
2022-07-30T04:01:49.144Z,45.63
2022-07-30T04:04:24.830Z,46.24
2022-07-30T04:06:52.041Z,46.17
2022-07-30T04:09:19.776Z,46.10
2022-07-30T04:11:49.007Z,46.00
2022-07-30T04:14:21.042Z,46.41
2022-07-30T04:16:57.164Z,46.49
2022-07-30T04:19:30.227Z,46.32
2022-07-30T04:21:57.764Z,45.91
2022-07-30T04:24:26.140Z,46.14
2022-07-30T04:26:54.217Z,46.09
2022-07-30T04:29:24.674Z,46.48
2022-07-30T04:31:57.382Z,46.42
2022-07-30T04:34:49.202Z,46.60
2022-07-30T04:37:24.272Z,46.76
2022-07-30T04:39:54.261Z,46.55
2022-07-30T04:42:22.698Z,46.37
2022-07-30T04:45:00.337Z,46.35
2022-07-30T04:47:31.002Z,46.52
2022-07-30T04:50:30.650Z,46.39
2022-07-30T04:52:58.739Z,46.69
2022-07-30T04:55:33.466Z,46.68
2022-07-30T04:58:02.657Z,46.41
2022-07-30T05:00:37.717Z,46.57
2022-07-30T05:03:11.329Z,46.48
2022-07-30T05:05:40.822Z,46.55
2022-07-30T05:08:07.850Z,46.66
2022-07-30T05:10:34.917Z,46.75
2022-07-30T05:13:02.094Z,46.93
2022-07-30T05:15:37.170Z,46.88
2022-07-30T05:18:06.641Z,46.87
2022-07-30T05:20:36.962Z,46.70
2022-07-30T05:23:20.305Z,46.80
2022-07-30T05:25:58.819Z,47.18
2022-07-30T05:28:34.715Z,46.94
2022-07-30T05:31:10.839Z,47.11
2022-07-30T05:33:42.594Z,47.13
2022-07-30T05:36:15.485Z,46.89
2022-07-30T05:38:43.969Z,47.03
2022-07-30T05:41:32.027Z,46.60
2022-07-30T05:44:03.618Z,46.77
2022-07-30T05:46:31.403Z,46.66
2022-07-30T05:48:58.985Z,46.91
2022-07-30T05:51:25.807Z,47.04
2022-07-30T05:53:52.671Z,47.25
2022-07-30T05:56:25.736Z,46.83
2022-07-30T05:59:13.465Z,46.79
2022-07-30T06:01:59.164Z,46.97
2022-07-30T06:04:36.663Z,46.96
2022-07-30T06:07:06.334Z,46.91
2022-07-30T06:09:37.021Z,47.02
2022-07-30T06:12:07.558Z,46.84
2022-07-30T06:14:35.264Z,47.02
2022-07-30T06:17:03.560Z,46.94
2022-07-30T06:19:49.130Z,47.00
2022-07-30T06:22:16.768Z,47.09
2022-07-30T06:24:47.878Z,46.94
2022-07-30T06:27:21.190Z,46.84
2022-07-30T06:29:47.978Z,46.91
2022-07-30T06:32:15.826Z,46.82
2022-07-30T06:34:42.915Z,46.47
2022-07-30T06:37:10.675Z,46.48
2022-07-30T06:39:56.181Z,46.75
2022-07-30T06:42:45.994Z,46.61
2022-07-30T06:45:33.426Z,46.89
2022-07-30T06:48:20.441Z,46.69
2022-07-30T06:50:47.438Z,46.64
2022-07-30T06:53:14.157Z,46.65
2022-07-30T06:56:00.394Z,46.45
2022-07-30T06:58:34.981Z,46.27
2022-07-30T07:01:25.101Z,46.32
2022-07-30T07:03:53.355Z,46.65
2022-07-30T07:06:20.529Z,46.46
2022-07-30T07:08:47.627Z,46.42
2022-07-30T07:11:18.367Z,46.34
2022-07-30T07:13:50.139Z,46.57
2022-07-30T07:16:25.715Z,46.29
2022-07-30T07:18:55.898Z,46.64
2022-07-30T07:21:23.654Z,46.36
2022-07-30T07:23:53.091Z,46.64
2022-07-30T07:26:55.775Z,46.16
2022-07-30T07:29:22.542Z,46.45
2022-07-30T07:32:05.706Z,46.47
2022-07-30T07:34:34.593Z,46.68
2022-07-30T07:37:01.656Z,46.31
2022-07-30T07:39:31.967Z,46.41
2022-07-30T07:41:58.845Z,46.76
2022-07-30T07:44:28.866Z,46.47
2022-07-30T07:46:55.802Z,46.52
2022-07-30T07:49:25.997Z,46.58
2022-07-30T07:51:53.225Z,47.04
2022-07-30T07:54:22.872Z,46.57
2022-07-30T07:56:56.767Z,46.60
2022-07-30T07:59:41.731Z,46.60
2022-07-30T08:02:14.275Z,46.17
2022-07-30T08:04:54.412Z,46.08
2022-07-30T08:07:50.831Z,45.89
2022-07-30T08:10:36.718Z,45.71
2022-07-30T08:13:51.497Z,45.13
2022-07-30T08:16:38.609Z,44.73
2022-07-30T08:19:12.564Z,44.50
2022-07-30T08:21:43.231Z,44.33
2022-07-30T08:24:10.290Z,43.96
2022-07-30T08:26:37.503Z,43.69
2022-07-30T08:29:04.590Z,43.61
2022-07-30T08:31:33.404Z,43.25
2022-07-30T08:34:00.648Z,43.62
2022-07-30T08:36:28.134Z,43.11
2022-07-30T08:38:55.317Z,43.28
2022-07-30T08:41:24.855Z,42.62
2022-07-30T08:43:51.967Z,42.90
2022-07-30T08:46:25.158Z,42.79
2022-07-30T08:49:11.204Z,42.31
2022-07-30T08:51:40.098Z,42.29
2022-07-30T08:54:29.599Z,41.69
2022-07-30T08:56:58.498Z,41.45
2022-07-30T08:59:25.442Z,41.67
2022-07-30T09:02:12.997Z,41.19
2022-07-30T09:04:54.991Z,41.42
2022-07-30T09:07:21.925Z,41.02
2022-07-30T09:09:48.640Z,41.18
2022-07-30T09:12:37.620Z,40.89
2022-07-30T09:15:08.295Z,40.66
2022-07-30T09:17:52.026Z,40.94
2022-07-30T09:20:20.642Z,40.87
2022-07-30T09:22:50.148Z,41.06
2022-07-30T09:25:44.209Z,40.51
2022-07-30T09:28:33.154Z,40.48
2022-07-30T09:31:15.970Z,40.38
2022-07-30T09:34:24.186Z,40.52
2022-07-30T09:37:01.889Z,40.28
2022-07-30T09:40:18.370Z,40.40
2022-07-30T09:43:08.577Z,39.99
2022-07-30T09:45:57.498Z,40.11
2022-07-30T09:48:26.843Z,40.20
2022-07-30T09:50:54.678Z,39.68
2022-07-30T09:53:24.625Z,39.87
2022-07-30T09:55:51.372Z,40.08
2022-07-30T09:58:26.592Z,39.86
2022-07-30T10:00:57.931Z,39.81
2022-07-30T10:03:47.963Z,39.46
2022-07-30T10:06:35.218Z,39.64
2022-07-30T10:09:14.284Z,39.38
2022-07-30T10:11:48.526Z,39.30
2022-07-30T10:14:15.903Z,39.12
2022-07-30T10:16:42.797Z,39.05
2022-07-30T10:19:15.970Z,39.47
2022-07-30T10:22:01.513Z,38.91
2022-07-30T10:24:49.175Z,38.75
2022-07-30T10:27:34.899Z,38.89
2022-07-30T10:30:08.030Z,38.87
2022-07-30T10:32:42.248Z,38.98
2022-07-30T10:35:09.673Z,38.75
2022-07-30T10:37:39.387Z,38.68
2022-07-30T10:40:16.190Z,38.91
2022-07-30T10:43:15.162Z,38.93
2022-07-30T10:46:21.311Z,38.74
2022-07-30T10:48:49.094Z,38.76
2022-07-30T10:51:18.525Z,38.24
2022-07-30T10:53:52.449Z,38.31
2022-07-30T10:56:25.758Z,38.42
2022-07-30T10:59:07.954Z,38.00
2022-07-30T11:01:48.774Z,37.92
2022-07-30T11:04:29.448Z,37.73
2022-07-30T11:07:24.020Z,37.82
2022-07-30T11:10:08.666Z,37.68
2022-07-30T11:12:42.395Z,38.07
2022-07-30T11:15:19.301Z,37.69
2022-07-30T11:18:13.013Z,37.49
2022-07-30T11:20:41.110Z,37.33
2022-07-30T11:23:20.626Z,37.18
2022-07-30T11:25:51.414Z,37.13
2022-07-30T11:28:49.443Z,37.08
2022-07-30T11:31:56.290Z,37.34
2022-07-30T11:34:18.280Z,36.96
2022-07-30T11:37:21.506Z,37.35
2022-07-30T11:39:55.166Z,37.36
2022-07-30T11:42:29.566Z,36.94
2022-07-30T11:45:23.270Z,37.01
2022-07-30T11:47:51.750Z,37.32
2022-07-30T11:50:20.042Z,36.94
2022-07-30T11:53:04.147Z,37.17
2022-07-30T11:55:39.527Z,37.14
2022-07-30T11:58:08.743Z,37.07
2022-07-30T12:00:48.057Z,36.68
2022-07-30T12:03:20.206Z,36.99
2022-07-30T12:05:52.540Z,36.46
2022-07-30T12:08:35.982Z,36.52
2022-07-30T12:11:03.472Z,36.45
2022-07-30T12:13:45.292Z,36.79
2022-07-30T12:16:18.087Z,36.56
2022-07-30T12:18:46.691Z,36.07
2022-07-30T12:21:16.038Z,35.99
2022-07-30T12:23:51.771Z,35.85
2022-07-30T12:26:29.401Z,35.96
2022-07-30T12:28:57.802Z,36.08
2022-07-30T12:31:24.821Z,35.77
2022-07-30T12:33:51.665Z,35.99
2022-07-30T12:36:31.132Z,35.62
2022-07-30T12:38:58.770Z,35.80
2022-07-30T12:41:47.391Z,35.41
2022-07-30T12:44:36.320Z,35.69
2022-07-30T12:47:05.501Z,35.53
2022-07-30T12:49:39.179Z,35.45
2022-07-30T12:52:28.214Z,35.30
2022-07-30T12:54:59.324Z,35.21
2022-07-30T12:57:26.071Z,35.28
2022-07-30T13:00:07.319Z,35.25
2022-07-30T13:02:35.198Z,35.45
2022-07-30T13:05:11.584Z,35.16
2022-07-30T13:07:58.711Z,35.03
2022-07-30T13:10:30.448Z,34.91
2022-07-30T13:12:58.487Z,35.02
2022-07-30T13:15:26.594Z,35.24
2022-07-30T13:17:53.418Z,35.57
2022-07-30T13:20:20.967Z,35.10
2022-07-30T13:22:47.920Z,35.31
2022-07-30T13:25:14.613Z,35.43
2022-07-30T13:27:41.395Z,35.33
2022-07-30T13:30:08.852Z,35.00
2022-07-30T13:32:35.720Z,35.53
2022-07-30T13:35:03.106Z,35.32
2022-07-30T13:37:38.426Z,35.25
2022-07-30T13:40:06.517Z,35.27
2022-07-30T13:42:33.242Z,35.39
2022-07-30T13:45:00.180Z,35.12
2022-07-30T13:47:26.852Z,35.11
2022-07-30T13:49:53.637Z,35.21
2022-07-30T13:52:20.270Z,34.96
2022-07-30T13:54:47.099Z,35.00
2022-07-30T13:57:13.825Z,35.42
2022-07-30T13:59:40.575Z,35.40
2022-07-30T14:02:07.413Z,35.10
2022-07-30T14:04:34.127Z,35.29
2022-07-30T14:07:01.208Z,34.86
2022-07-30T14:09:28.325Z,35.15
2022-07-30T14:11:55.055Z,34.84
2022-07-30T14:14:22.561Z,34.77
2022-07-30T14:16:53.869Z,35.14
2022-07-30T14:19:24.345Z,35.32
2022-07-30T14:21:52.961Z,35.22
2022-07-30T14:24:20.571Z,34.88
2022-07-30T14:26:47.640Z,35.30
2022-07-30T14:29:14.297Z,35.30
2022-07-30T14:31:41.045Z,35.07
2022-07-30T14:34:08.069Z,35.02
2022-07-30T14:36:37.210Z,35.09
2022-07-30T14:39:04.879Z,34.58
2022-07-30T14:41:32.174Z,34.52
2022-07-30T14:43:58.865Z,34.81
2022-07-30T14:46:25.569Z,34.91
2022-07-30T14:48:52.475Z,34.61
2022-07-30T14:51:24.259Z,34.76
2022-07-30T14:53:53.192Z,34.75
2022-07-30T14:56:21.391Z,34.63
2022-07-30T14:58:48.193Z,34.26
2022-07-30T15:01:16.283Z,34.59
2022-07-30T15:03:45.299Z,34.30
2022-07-30T15:06:14.874Z,34.45
2022-07-30T15:08:42.509Z,33.95
2022-07-30T15:11:09.727Z,33.79
2022-07-30T15:13:37.118Z,34.27
2022-07-30T15:16:07.253Z,33.88
2022-07-30T15:18:33.974Z,34.18
2022-07-30T15:21:00.666Z,33.75
2022-07-30T15:23:27.413Z,33.78
2022-07-30T15:25:54.118Z,33.98
2022-07-30T15:28:20.805Z,33.65
2022-07-30T15:30:47.597Z,33.86
2022-07-30T15:33:14.239Z,33.93
2022-07-30T15:35:41.442Z,33.71
2022-07-30T15:38:08.134Z,33.91
2022-07-30T15:40:34.920Z,33.65
2022-07-30T15:43:01.689Z,33.78
2022-07-30T15:45:50.115Z,33.90
2022-07-30T15:48:24.491Z,33.67
2022-07-30T15:51:00.713Z,33.44
2022-07-30T15:53:27.663Z,33.48
2022-07-30T15:55:54.338Z,33.66
2022-07-30T15:58:21.073Z,33.69
2022-07-30T16:00:47.803Z,33.80
2022-07-30T16:03:14.510Z,33.58
2022-07-30T16:05:51.113Z,33.35
2022-07-30T16:08:22.261Z,33.48
2022-07-30T16:10:49.693Z,33.35
2022-07-30T16:13:16.462Z,33.32
2022-07-30T16:15:43.261Z,33.40
2022-07-30T16:18:10.470Z,33.73
2022-07-30T16:20:37.379Z,33.66
2022-07-30T16:23:04.984Z,33.59
2022-07-30T16:25:33.811Z,33.41
2022-07-30T16:28:00.459Z,33.45
2022-07-30T16:30:27.547Z,32.88
2022-07-30T16:32:56.444Z,32.83
2022-07-30T16:35:23.444Z,32.90
2022-07-30T16:37:50.223Z,33.34
2022-07-30T16:40:16.998Z,33.17
2022-07-30T16:42:43.738Z,32.87
2022-07-30T16:45:11.026Z,33.31
2022-07-30T16:47:37.784Z,33.41
2022-07-30T16:50:04.962Z,33.03
2022-07-30T16:52:31.637Z,33.00
2022-07-30T16:54:58.365Z,32.94
2022-07-30T16:57:25.006Z,33.39
2022-07-30T16:59:51.682Z,33.43
2022-07-30T17:02:18.345Z,33.37
2022-07-30T17:04:45.121Z,33.40
2022-07-30T17:07:11.737Z,33.31
2022-07-30T17:09:38.470Z,33.37
2022-07-30T17:12:12.016Z,33.31
2022-07-30T17:14:43.341Z,32.92
2022-07-30T17:17:14.162Z,32.92
2022-07-30T17:19:42.650Z,32.58
2022-07-30T17:22:09.315Z,32.90
2022-07-30T17:24:36.065Z,32.62
2022-07-30T17:27:02.916Z,32.91
2022-07-30T17:29:29.815Z,32.63
2022-07-30T17:31:56.939Z,32.78
2022-07-30T17:34:23.927Z,32.62
2022-07-30T17:36:52.547Z,32.59
2022-07-30T17:40:26.410Z,32.27
2022-07-30T17:42:10.663Z,32.70
2022-07-30T17:44:40.250Z,32.26
2022-07-30T17:47:10.989Z,32.32
2022-07-30T17:49:41.061Z,32.71
2022-07-30T17:52:08.839Z,32.42
2022-07-30T17:54:35.851Z,32.68
2022-07-30T17:57:02.908Z,32.69
2022-07-30T17:59:29.735Z,32.95
2022-07-30T18:01:56.517Z,32.85
2022-07-30T18:04:23.365Z,32.52
2022-07-30T18:06:50.739Z,32.47
2022-07-30T18:09:17.709Z,32.73
2022-07-30T18:11:45.691Z,32.58
2022-07-30T18:14:12.850Z,32.83
2022-07-30T18:16:39.637Z,33.02
2022-07-30T18:19:07.040Z,32.95
2022-07-30T18:21:35.944Z,33.29
2022-07-30T18:24:06.205Z,32.98
2022-07-30T18:26:38.417Z,33.59
2022-07-30T18:29:06.436Z,33.47
2022-07-30T18:31:35.522Z,34.15
2022-07-30T18:34:02.296Z,34.24
2022-07-30T18:36:29.117Z,34.45
2022-07-30T18:38:56.034Z,34.61
2022-07-30T18:41:24.005Z,34.80
2022-07-30T18:43:50.980Z,34.60
2022-07-30T18:46:17.840Z,35.08
2022-07-30T18:48:45.029Z,35.03
2022-07-30T18:51:14.117Z,35.11
2022-07-30T18:53:42.260Z,35.57
2022-07-30T18:56:09.313Z,35.80
2022-07-30T18:58:37.969Z,35.88
2022-07-30T19:01:05.140Z,36.14
2022-07-30T19:03:31.960Z,36.34
2022-07-30T19:05:58.983Z,36.53
2022-07-30T19:08:26.113Z,36.04
2022-07-30T19:10:52.883Z,36.38
2022-07-30T19:13:19.964Z,36.53
2022-07-30T19:15:47.337Z,36.51
2022-07-30T19:18:14.120Z,37.18
2022-07-30T19:20:41.363Z,36.87
2022-07-30T19:23:08.327Z,36.97
2022-07-30T19:25:36.897Z,36.96
2022-07-30T19:28:04.788Z,37.12
2022-07-30T19:30:33.075Z,37.43
2022-07-30T19:33:05.399Z,37.38
2022-07-30T19:35:32.941Z,37.42
2022-07-30T19:38:00.247Z,37.45
2022-07-30T19:40:27.114Z,37.58
2022-07-30T19:42:55.786Z,37.72
2022-07-30T19:45:23.908Z,37.89
2022-07-30T19:47:50.821Z,37.86
2022-07-30T19:50:17.888Z,38.35
2022-07-30T19:52:51.433Z,37.88
2022-07-30T19:55:34.953Z,37.79
2022-07-30T19:58:16.276Z,38.23
2022-07-30T20:00:49.407Z,38.38
2022-07-30T20:03:25.318Z,38.53
2022-07-30T20:05:57.568Z,38.05
2022-07-30T20:08:26.257Z,38.19
2022-07-30T20:10:53.287Z,38.37
2022-07-30T20:13:20.019Z,38.61
2022-07-30T20:15:49.621Z,38.36
2022-07-30T20:18:29.263Z,38.63
2022-07-30T20:20:56.283Z,38.79
2022-07-30T20:23:25.209Z,38.57
2022-07-30T20:25:52.383Z,38.73
2022-07-30T20:28:21.121Z,38.52
2022-07-30T20:30:49.016Z,38.39
2022-07-30T20:33:16.699Z,39.02
2022-07-30T20:36:02.738Z,39.00
2022-07-30T20:38:30.359Z,39.08
2022-07-30T20:40:57.482Z,39.17
2022-07-30T20:43:24.166Z,39.16
2022-07-30T20:45:54.351Z,39.11
2022-07-30T20:48:25.332Z,38.73
2022-07-30T20:50:52.668Z,38.90
2022-07-30T20:53:19.866Z,38.74
2022-07-30T20:55:47.581Z,39.21
2022-07-30T20:58:16.772Z,38.91
2022-07-30T21:00:49.745Z,39.20
2022-07-30T21:03:21.827Z,39.11
2022-07-30T21:05:49.214Z,38.93
2022-07-30T21:08:19.981Z,39.21
2022-07-30T21:10:46.859Z,39.05
2022-07-30T21:13:13.851Z,39.41
2022-07-30T21:15:45.420Z,39.63
2022-07-30T21:18:27.894Z,39.17
2022-07-30T21:20:54.569Z,39.46
2022-07-30T21:23:23.938Z,39.41
2022-07-30T21:26:00.752Z,39.38
2022-07-30T21:28:35.182Z,39.84
2022-07-30T21:31:03.876Z,39.75
2022-07-30T21:33:35.024Z,39.83
2022-07-30T21:36:01.672Z,40.23
2022-07-30T21:38:28.723Z,40.46
2022-07-30T21:40:57.811Z,40.20
2022-07-30T21:43:29.939Z,40.52
2022-07-30T21:45:58.463Z,40.35
2022-07-30T21:48:26.246Z,40.62
2022-07-30T21:50:54.437Z,40.69
2022-07-30T21:53:29.693Z,40.37
2022-07-30T21:56:08.974Z,40.61
2022-07-30T21:58:35.645Z,40.76
2022-07-30T22:01:16.776Z,40.59
2022-07-30T22:04:04.805Z,41.12
2022-07-30T22:06:39.907Z,41.03
2022-07-30T22:09:19.061Z,40.84
2022-07-30T22:11:55.694Z,41.32
2022-07-30T22:14:22.530Z,41.06
2022-07-30T22:16:49.870Z,41.13
2022-07-30T22:19:17.294Z,41.37
2022-07-30T22:21:46.456Z,41.31
2022-07-30T22:24:29.036Z,41.45
2022-07-30T22:27:01.130Z,41.40
2022-07-30T22:29:33.708Z,41.29
2022-07-30T22:32:04.061Z,41.47
2022-07-30T22:34:31.754Z,41.66
2022-07-30T22:36:58.846Z,41.92
2022-07-30T22:39:32.200Z,41.47
2022-07-30T22:42:12.937Z,41.66
2022-07-30T22:44:39.712Z,41.67
2022-07-30T22:47:18.766Z,41.89
2022-07-30T22:49:54.854Z,41.77
2022-07-30T22:52:25.885Z,42.31
2022-07-30T22:55:11.783Z,42.04
2022-07-30T22:57:40.254Z,42.17
2022-07-30T23:00:11.435Z,42.29
2022-07-30T23:02:40.106Z,42.55
2022-07-30T23:05:08.117Z,42.61
2022-07-30T23:07:39.568Z,42.48
2022-07-30T23:10:17.379Z,42.61
2022-07-30T23:12:55.519Z,42.34
2022-07-30T23:15:22.816Z,42.72
2022-07-30T23:17:49.518Z,42.79
2022-07-30T23:20:18.191Z,42.91
2022-07-30T23:22:44.922Z,43.08
2022-07-30T23:25:12.014Z,43.17
2022-07-30T23:27:39.669Z,42.64
2022-07-30T23:30:10.742Z,43.10
2022-07-30T23:32:38.187Z,42.88
2022-07-30T23:35:06.325Z,42.72
2022-07-30T23:37:48.750Z,43.08
2022-07-30T23:40:19.529Z,42.88
2022-07-30T23:42:46.741Z,42.88
2022-07-30T23:45:13.906Z,43.11
2022-07-30T23:47:54.683Z,42.76
2022-07-30T23:50:27.915Z,43.10
2022-07-30T23:52:54.646Z,43.41
2022-07-30T23:55:21.414Z,42.96
2022-07-30T23:57:48.138Z,43.53
